createdAt,value
2022-08-10T00:01:06.379Z,3.67
2022-08-10T00:03:36.465Z,3.03
2022-08-10T00:06:07.122Z,3.65
2022-08-10T00:08:38.043Z,3.22
2022-08-10T00:11:15.249Z,2.67
2022-08-10T00:13:46.939Z,2.83
2022-08-10T00:16:17.192Z,3.05
2022-08-10T00:18:47.303Z,3.30
2022-08-10T00:21:17.812Z,3.22
2022-08-10T00:23:47.943Z,2.72
2022-08-10T00:26:18.033Z,3.15
2022-08-10T00:28:48.607Z,2.53
2022-08-10T00:31:19.189Z,2.83
2022-08-10T00:33:49.227Z,3.00
2022-08-10T00:36:19.353Z,2.85
2022-08-10T00:38:49.413Z,3.33
2022-08-10T00:41:19.619Z,2.75
2022-08-10T00:43:49.711Z,3.25
2022-08-10T00:46:19.802Z,4.00
2022-08-10T00:48:57.646Z,2.97
2022-08-10T00:51:43.028Z,3.17
2022-08-10T00:54:24.478Z,3.15
2022-08-10T00:57:16.560Z,3.30
2022-08-10T00:59:59.038Z,2.85
2022-08-10T01:02:32.055Z,3.22
2022-08-10T01:05:15.563Z,3.08
2022-08-10T01:08:06.177Z,2.35
2022-08-10T01:10:38.368Z,2.90
2022-08-10T01:13:28.954Z,3.03
2022-08-10T01:16:22.272Z,3.53
2022-08-10T01:18:56.112Z,3.40
2022-08-10T01:21:41.871Z,2.33
2022-08-10T01:24:36.049Z,2.97
2022-08-10T01:27:18.247Z,2.95
2022-08-10T01:29:59.218Z,2.60
2022-08-10T01:32:38.377Z,2.80
2022-08-10T01:35:13.374Z,2.45
2022-08-10T01:37:51.955Z,2.97
2022-08-10T01:40:24.359Z,2.92
2022-08-10T01:42:55.255Z,2.55
2022-08-10T01:45:29.908Z,4.10
2022-08-10T01:48:30.502Z,2.90
2022-08-10T01:51:02.943Z,3.70
2022-08-10T01:53:41.247Z,2.22
2022-08-10T01:56:12.828Z,2.92
2022-08-10T01:58:43.552Z,2.65
2022-08-10T02:01:17.122Z,3.35
2022-08-10T02:04:04.789Z,3.00
2022-08-10T02:06:42.916Z,2.80
2022-08-10T02:09:14.246Z,2.83
2022-08-10T02:12:05.300Z,2.35
2022-08-10T02:14:39.849Z,3.80
2022-08-10T02:17:57.426Z,2.15
2022-08-10T02:20:02.484Z,4.07
2022-08-10T02:22:36.413Z,2.60
2022-08-10T02:25:42.608Z,3.33
2022-08-10T02:28:06.794Z,2.60
2022-08-10T02:30:37.439Z,2.25
2022-08-10T02:33:07.723Z,2.05
2022-08-10T02:35:54.548Z,2.58
2022-08-10T02:38:58.380Z,2.35
2022-08-10T02:42:18.329Z,3.45
2022-08-10T02:45:21.566Z,2.67
2022-08-10T02:47:22.887Z,2.47
2022-08-10T02:49:58.286Z,3.00
2022-08-10T02:52:49.042Z,2.60
2022-08-10T02:55:26.972Z,2.40
2022-08-10T02:58:16.995Z,2.10
2022-08-10T03:00:54.681Z,2.33
2022-08-10T03:05:56.424Z,2.45
2022-08-10T03:08:28.139Z,2.42
2022-08-10T03:10:58.533Z,2.40
2022-08-10T03:13:29.079Z,2.05
2022-08-10T03:15:59.408Z,2.10
2022-08-10T03:18:29.520Z,2.47
2022-08-10T03:20:59.676Z,2.70
2022-08-10T03:23:30.185Z,2.97
2022-08-10T03:26:00.296Z,2.08
2022-08-10T03:28:30.906Z,2.95
2022-08-10T03:31:01.704Z,2.45
2022-08-10T03:33:32.627Z,2.83
2022-08-10T03:36:41.783Z,2.83
2022-08-10T03:38:52.882Z,3.67
2022-08-10T03:41:25.537Z,2.67
2022-08-10T03:44:00.687Z,3.65
2022-08-10T03:46:30.990Z,4.88
2022-08-10T03:49:02.835Z,6.28
2022-08-10T03:51:33.086Z,10.07
2022-08-10T03:54:07.357Z,9.35
2022-08-10T03:56:41.143Z,7.32
2022-08-10T03:59:12.405Z,6.05
2022-08-10T04:02:45.115Z,7.75
2022-08-10T04:04:33.742Z,6.43
2022-08-10T04:07:03.857Z,7.05
2022-08-10T04:09:54.262Z,7.15
2022-08-10T04:12:24.775Z,6.60
2022-08-10T04:14:55.167Z,5.32
2022-08-10T04:18:01.396Z,6.95
2022-08-10T04:20:23.026Z,8.63
2022-08-10T04:22:54.647Z,7.38
2022-08-10T04:25:25.089Z,6.53
2022-08-10T04:27:55.412Z,6.10
2022-08-10T04:30:27.904Z,5.22
2022-08-10T04:32:58.429Z,6.03
2022-08-10T04:35:28.630Z,6.35
2022-08-10T04:37:58.842Z,6.32
2022-08-10T04:40:30.928Z,7.00
2022-08-10T04:43:07.322Z,5.88
2022-08-10T04:48:42.633Z,6.35
2022-08-10T04:51:10.806Z,6.65
2022-08-10T04:54:05.990Z,6.13
2022-08-10T04:56:39.318Z,6.80
2022-08-10T04:59:10.437Z,5.03
2022-08-10T05:02:28.023Z,5.28
2022-08-10T05:04:36.094Z,5.63
2022-08-10T05:07:10.267Z,5.30
2022-08-10T05:10:02.996Z,6.00
2022-08-10T05:12:31.814Z,5.25
2022-08-10T05:15:02.107Z,4.63
2022-08-10T05:17:32.231Z,5.03
2022-08-10T05:20:06.459Z,5.72
2022-08-10T05:22:38.220Z,5.57
2022-08-10T05:25:10.505Z,4.88
2022-08-10T05:27:41.268Z,2.75
2022-08-10T05:30:12.215Z,3.95
2022-08-10T05:32:56.599Z,3.00
2022-08-10T05:35:39.118Z,4.45
2022-08-10T05:38:20.392Z,3.45
2022-08-10T05:40:50.554Z,1.77
2022-08-10T05:43:21.225Z,2.05
2022-08-10T05:46:19.451Z,2.55
2022-08-10T05:48:58.846Z,3.90
2022-08-10T05:51:30.749Z,2.08
2022-08-10T05:54:06.030Z,6.78
2022-08-10T05:56:57.035Z,3.03
2022-08-10T06:00:11.101Z,1.88
2022-08-10T06:02:33.641Z,5.03
2022-08-10T06:05:11.460Z,4.47
2022-08-10T06:07:42.925Z,2.75
2022-08-10T06:10:31.383Z,4.32
2022-08-10T06:13:29.706Z,5.82
2022-08-10T06:16:08.622Z,4.97
2022-08-10T06:18:39.215Z,4.45
2022-08-10T06:21:10.753Z,4.78
2022-08-10T06:23:41.032Z,4.18
2022-08-10T06:26:15.598Z,4.93
2022-08-10T06:29:02.415Z,5.77
2022-08-10T06:31:48.869Z,4.97
2022-08-10T06:34:23.870Z,4.78
2022-08-10T06:36:54.469Z,3.95
2022-08-10T06:39:40.053Z,5.30
2022-08-10T06:42:18.499Z,5.28
2022-08-10T06:44:51.742Z,3.00
2022-08-10T06:47:23.345Z,3.80
2022-08-10T06:49:59.940Z,3.83
2022-08-10T06:52:33.432Z,3.15
2022-08-10T06:55:05.346Z,2.88
2022-08-10T06:57:35.722Z,3.03
2022-08-10T07:00:06.943Z,3.50
2022-08-10T07:02:39.208Z,3.20
2022-08-10T07:05:10.067Z,2.78
2022-08-10T07:07:41.687Z,3.22
2022-08-10T07:10:11.969Z,2.58
2022-08-10T07:12:42.179Z,3.15
2022-08-10T07:15:12.656Z,2.78
2022-08-10T07:17:42.774Z,2.63
2022-08-10T07:20:13.284Z,3.20
2022-08-10T07:23:26.983Z,3.15
2022-08-10T07:25:33.678Z,2.63
2022-08-10T07:28:03.831Z,2.83
2022-08-10T07:30:34.594Z,3.60
2022-08-10T07:33:04.742Z,3.60
2022-08-10T07:35:42.236Z,3.47
2022-08-10T07:38:20.940Z,3.38
2022-08-10T07:40:51.574Z,3.80
2022-08-10T07:43:22.917Z,5.03
2022-08-10T07:45:53.248Z,4.03
2022-08-10T07:48:33.563Z,4.60
2022-08-10T07:51:03.820Z,4.65
2022-08-10T07:53:39.581Z,5.03
2022-08-10T07:56:21.209Z,6.75
2022-08-10T07:59:01.875Z,10.27
2022-08-10T08:01:33.933Z,14.15
2022-08-10T08:04:11.113Z,13.73
2022-08-10T08:06:42.895Z,13.45
2022-08-10T08:09:13.138Z,9.70
2022-08-10T08:11:44.727Z,7.63
2022-08-10T08:14:15.225Z,7.35
2022-08-10T08:16:46.677Z,7.30
2022-08-10T08:19:27.033Z,6.75
2022-08-10T08:24:04.728Z,6.35
2022-08-10T08:24:48.680Z,5.43
2022-08-10T08:29:53.256Z,6.32
2022-08-10T08:32:24.228Z,11.27
2022-08-10T08:34:58.814Z,6.68
2022-08-10T08:38:33.644Z,6.40
2022-08-10T08:40:21.853Z,3.33
2022-08-10T08:43:10.778Z,2.72
2022-08-10T08:46:01.925Z,2.63
2022-08-10T08:48:32.493Z,2.75
2022-08-10T08:52:07.299Z,2.47
2022-08-10T08:54:34.024Z,2.10
2022-08-10T08:57:10.737Z,3.28
2022-08-10T08:59:43.818Z,3.47
2022-08-10T09:02:32.926Z,3.42
2022-08-10T09:05:21.648Z,5.22
2022-08-10T09:08:01.853Z,2.58
2022-08-10T09:10:37.734Z,2.38
2022-08-10T09:13:31.910Z,3.43
2022-08-10T09:16:20.163Z,3.22
2022-08-10T09:18:50.365Z,2.45
2022-08-10T09:21:20.491Z,3.15
2022-08-10T09:24:01.385Z,3.88
2022-08-10T09:26:38.170Z,3.40
2022-08-10T09:29:12.780Z,3.55
2022-08-10T09:32:57.368Z,3.78
2022-08-10T09:36:20.172Z,5.20
2022-08-10T09:38:03.439Z,3.53
2022-08-10T09:41:01.020Z,2.55
2022-08-10T09:43:42.978Z,2.72
2022-08-10T09:46:18.982Z,2.40
2022-08-10T09:48:52.489Z,2.95
2022-08-10T09:51:48.076Z,2.55
2022-08-10T09:54:36.538Z,2.13
2022-08-10T09:57:43.928Z,2.55
2022-08-10T10:00:17.841Z,2.20
2022-08-10T10:03:07.622Z,2.05
2022-08-10T10:05:55.503Z,1.42
2022-08-10T10:08:25.774Z,1.60
2022-08-10T10:11:00.166Z,2.08
2022-08-10T10:14:02.634Z,2.35
2022-08-10T10:16:53.365Z,2.38
2022-08-10T10:19:29.318Z,2.03
2022-08-10T10:21:59.592Z,2.45
2022-08-10T10:24:35.310Z,2.63
2022-08-10T10:27:27.500Z,2.47
2022-08-10T10:30:27.162Z,2.15
2022-08-10T10:33:05.922Z,1.83
2022-08-10T10:35:36.021Z,1.92
2022-08-10T10:38:06.985Z,2.63
2022-08-10T10:40:41.729Z,2.60
2022-08-10T10:43:23.613Z,2.00
2022-08-10T10:46:00.317Z,1.70
2022-08-10T10:48:48.758Z,1.30
2022-08-10T10:51:20.749Z,1.30
2022-08-10T10:53:50.973Z,1.40
2022-08-10T10:56:26.616Z,1.08
2022-08-10T10:59:35.441Z,1.53
2022-08-10T11:02:17.562Z,1.55
2022-08-10T11:05:07.214Z,1.55
2022-08-10T11:07:57.376Z,2.17
2022-08-10T11:10:52.695Z,1.30
2022-08-10T11:14:26.908Z,1.38
2022-08-10T11:16:56.258Z,1.60
2022-08-10T11:20:01.267Z,3.22
2022-08-10T11:22:41.391Z,1.95
2022-08-10T11:25:37.669Z,1.05
2022-08-10T11:28:26.137Z,1.15
2022-08-10T11:31:15.068Z,1.02
2022-08-10T11:34:11.157Z,1.17
2022-08-10T11:37:04.263Z,1.00
2022-08-10T11:39:48.839Z,2.42
2022-08-10T11:42:36.175Z,0.80
2022-08-10T11:45:08.612Z,0.90
2022-08-10T11:47:40.599Z,1.35
2022-08-10T11:50:13.798Z,1.00
2022-08-10T11:53:06.931Z,0.93
2022-08-10T11:55:37.050Z,1.00
2022-08-10T11:58:27.779Z,3.35
2022-08-10T12:00:58.422Z,1.00
2022-08-10T12:03:34.073Z,1.42
2022-08-10T12:06:04.818Z,1.20
2022-08-10T12:10:09.789Z,1.50
2022-08-10T12:11:25.733Z,7.00
2022-08-10T12:14:22.734Z,1.08
2022-08-10T12:17:13.381Z,0.70
2022-08-10T12:20:06.513Z,0.70
2022-08-10T12:22:38.657Z,0.98
2022-08-10T12:25:55.153Z,0.60
2022-08-10T12:28:04.765Z,0.50
2022-08-10T12:30:36.302Z,0.70
2022-08-10T12:33:07.625Z,0.73
2022-08-10T12:35:51.617Z,0.70
2022-08-10T12:38:51.879Z,0.50
2022-08-10T12:41:25.423Z,1.50
2022-08-10T12:44:22.940Z,0.43
2022-08-10T12:47:15.309Z,0.90
2022-08-10T12:50:21.639Z,0.40
2022-08-10T12:52:57.823Z,0.50
2022-08-10T12:55:29.286Z,0.80
2022-08-10T12:57:59.743Z,0.80
2022-08-10T13:00:34.633Z,0.70
2022-08-10T13:03:05.856Z,0.60
2022-08-10T13:06:01.912Z,1.20
2022-08-10T13:08:44.484Z,0.85
2022-08-10T13:12:33.925Z,0.90
2022-08-10T13:14:25.075Z,1.08
2022-08-10T13:16:55.329Z,0.75
2022-08-10T13:19:26.199Z,0.30
2022-08-10T13:22:07.875Z,0.50
2022-08-10T13:24:47.888Z,0.50
2022-08-10T13:28:03.114Z,0.93
2022-08-10T13:30:17.665Z,0.50
2022-08-10T13:33:03.962Z,0.82
2022-08-10T13:35:34.061Z,0.98
2022-08-10T13:38:04.422Z,0.43
2022-08-10T13:40:34.697Z,0.50
2022-08-10T13:43:05.735Z,0.70
2022-08-10T13:45:35.865Z,1.42
2022-08-10T13:48:12.747Z,0.80
2022-08-10T13:50:43.056Z,0.60
2022-08-10T13:53:15.763Z,0.82
2022-08-10T13:55:53.803Z,1.00
2022-08-10T13:58:32.824Z,1.13
2022-08-10T14:01:03.882Z,1.38
2022-08-10T14:03:39.198Z,1.20
2022-08-10T14:06:09.862Z,2.70
2022-08-10T14:08:40.734Z,1.63
2022-08-10T14:11:17.605Z,1.58
2022-08-10T14:16:17.885Z,1.42
2022-08-10T14:18:49.022Z,2.05
2022-08-10T14:21:19.412Z,4.00
2022-08-10T14:23:52.992Z,2.50
2022-08-10T14:26:28.358Z,1.90
2022-08-10T14:28:59.848Z,1.80
2022-08-10T14:31:32.433Z,1.48
2022-08-10T14:34:02.808Z,2.00
2022-08-10T14:36:40.500Z,2.47
2022-08-10T14:39:11.246Z,2.15
2022-08-10T14:42:02.803Z,2.00
2022-08-10T14:44:32.232Z,1.55
2022-08-10T14:47:42.344Z,1.48
2022-08-10T14:49:59.472Z,2.10
2022-08-10T14:52:29.658Z,1.30
2022-08-10T14:55:00.190Z,1.27
2022-08-10T14:58:19.739Z,1.63
2022-08-10T15:00:35.106Z,1.42
2022-08-10T15:03:10.994Z,1.85
2022-08-10T15:05:59.113Z,3.65
2022-08-10T15:08:30.036Z,1.98
2022-08-10T15:11:08.266Z,2.15
2022-08-10T15:14:20.044Z,2.90
2022-08-10T15:16:48.636Z,2.88
2022-08-10T15:20:01.032Z,2.63
2022-08-10T15:22:35.699Z,2.60
2022-08-10T15:25:06.746Z,3.20
2022-08-10T15:27:54.585Z,3.50
2022-08-10T15:30:30.443Z,2.38
2022-08-10T15:33:56.947Z,2.65
2022-08-10T15:36:30.116Z,3.35
2022-08-10T15:39:04.565Z,3.30
2022-08-10T15:41:58.557Z,2.53
2022-08-10T15:44:40.732Z,2.92
2022-08-10T15:47:15.453Z,2.92
2022-08-10T15:49:57.830Z,2.47
2022-08-10T15:52:39.467Z,3.10
2022-08-10T15:55:42.526Z,3.38
2022-08-10T15:58:12.425Z,3.80
2022-08-10T16:00:47.094Z,3.47
2022-08-10T16:03:24.432Z,3.53
2022-08-10T16:06:01.877Z,3.33
2022-08-10T16:08:55.903Z,2.78
2022-08-10T16:11:37.717Z,2.58
2022-08-10T16:14:10.642Z,3.95
2022-08-10T16:16:40.966Z,2.60
2022-08-10T16:19:22.306Z,2.95
2022-08-10T16:21:58.595Z,3.40
2022-08-10T16:24:28.822Z,2.70
2022-08-10T16:26:58.963Z,2.50
2022-08-10T16:29:29.056Z,2.92
2022-08-10T16:31:59.773Z,3.20
2022-08-10T16:34:30.621Z,2.88
2022-08-10T16:37:02.572Z,3.05
2022-08-10T16:39:58.687Z,1.48
2022-08-10T16:42:29.292Z,2.63
2022-08-10T16:45:05.882Z,2.35
2022-08-10T16:47:39.579Z,1.55
2022-08-10T16:50:10.770Z,2.05
2022-08-10T16:52:40.995Z,1.73
2022-08-10T16:55:48.836Z,1.83
2022-08-10T16:58:22.774Z,1.70
2022-08-10T17:00:53.043Z,1.60
2022-08-10T17:04:06.942Z,1.30
2022-08-10T17:06:32.220Z,1.80
2022-08-10T17:09:03.334Z,1.30
2022-08-10T17:11:42.134Z,1.67
2022-08-10T17:14:12.293Z,1.63
2022-08-10T17:16:46.705Z,0.88
2022-08-10T17:19:18.580Z,1.13
2022-08-10T17:21:53.498Z,1.77
2022-08-10T17:24:25.362Z,1.50
2022-08-10T17:26:57.660Z,1.25
2022-08-10T17:29:58.484Z,1.13
2022-08-10T17:32:22.469Z,1.60
2022-08-10T17:34:54.772Z,2.20
2022-08-10T17:37:25.189Z,2.00
2022-08-10T17:39:56.603Z,2.05
2022-08-10T17:42:28.484Z,1.92
2022-08-10T17:44:58.647Z,1.95
2022-08-10T17:47:29.058Z,2.10
2022-08-10T17:49:59.399Z,1.42
2022-08-10T17:52:33.287Z,1.90
2022-08-10T17:55:05.493Z,1.40
2022-08-10T17:57:37.389Z,1.38
2022-08-10T18:00:09.632Z,1.05
2022-08-10T18:02:39.795Z,1.15
2022-08-10T18:05:10.821Z,1.00
2022-08-10T18:07:43.174Z,1.30
2022-08-10T18:10:13.722Z,0.93
2022-08-10T18:12:48.469Z,1.00
2022-08-10T18:15:20.601Z,0.85
2022-08-10T18:17:55.487Z,1.23
2022-08-10T18:20:32.859Z,0.85
2022-08-10T18:23:03.030Z,0.90
2022-08-10T18:25:36.708Z,1.30
2022-08-10T18:28:09.069Z,1.35
2022-08-10T18:30:47.011Z,1.40
2022-08-10T18:33:17.414Z,1.40
2022-08-10T18:35:47.855Z,1.65
2022-08-10T18:38:18.497Z,1.08
2022-08-10T18:41:08.662Z,1.40
2022-08-10T18:44:11.897Z,1.83
2022-08-10T18:46:37.576Z,2.80
2022-08-10T18:49:09.067Z,1.05
2022-08-10T18:51:46.672Z,1.23
2022-08-10T18:54:38.862Z,1.30
2022-08-10T18:57:30.778Z,1.23
2022-08-10T19:00:07.315Z,1.65
2022-08-10T19:02:57.314Z,1.58
2022-08-10T19:05:48.383Z,1.85
2022-08-10T19:08:30.345Z,2.83
2022-08-10T19:11:05.248Z,0.68
2022-08-10T19:13:52.366Z,1.30
2022-08-10T19:16:41.701Z,0.93
2022-08-10T19:19:28.014Z,1.00
2022-08-10T19:22:07.656Z,1.00
2022-08-10T19:24:56.297Z,0.60
2022-08-10T19:27:32.849Z,1.20
2022-08-10T19:30:13.811Z,0.90
2022-08-10T19:32:48.897Z,1.00
2022-08-10T19:35:22.441Z,0.68
2022-08-10T19:38:01.071Z,0.52
2022-08-10T19:40:44.359Z,0.98
2022-08-10T19:43:59.094Z,0.70
2022-08-10T19:46:29.618Z,0.60
2022-08-10T19:49:00.618Z,0.70
2022-08-10T19:51:48.667Z,1.27
2022-08-10T19:54:42.652Z,0.88
2022-08-10T19:57:18.439Z,1.00
2022-08-10T20:00:16.124Z,0.85
2022-08-10T20:02:52.887Z,0.68
2022-08-10T20:05:31.169Z,0.60
2022-08-10T20:08:23.096Z,0.93
2022-08-10T20:10:59.884Z,0.80
2022-08-10T20:13:45.470Z,0.70
2022-08-10T20:16:25.591Z,0.90
2022-08-10T20:19:00.742Z,0.52
2022-08-10T20:22:03.248Z,0.95
2022-08-10T20:24:36.864Z,0.60
2022-08-10T20:28:06.759Z,1.00
2022-08-10T20:30:20.987Z,0.80
2022-08-10T20:33:06.246Z,0.65
2022-08-10T20:35:51.705Z,0.68
2022-08-10T20:38:21.847Z,0.98
2022-08-10T20:41:05.409Z,0.70
2022-08-10T20:43:43.810Z,0.70
2022-08-10T20:46:25.152Z,0.50
2022-08-10T20:48:59.372Z,0.47
2022-08-10T20:51:57.564Z,0.85
2022-08-10T20:54:31.742Z,0.60
2022-08-10T20:57:55.847Z,0.45
2022-08-10T21:00:15.247Z,0.70
2022-08-10T21:03:06.604Z,0.68
2022-08-10T21:05:45.602Z,0.60
2022-08-10T21:08:16.163Z,0.70
2022-08-10T21:10:52.544Z,0.40
2022-08-10T21:16:03.080Z,0.68
2022-08-10T21:18:34.397Z,1.00
2022-08-10T21:21:11.751Z,0.60
2022-08-10T21:23:50.918Z,0.70
2022-08-10T21:26:39.067Z,0.60
2022-08-10T21:29:09.315Z,0.70
2022-08-10T21:31:45.310Z,1.00
2022-08-10T21:34:15.195Z,0.60
2022-08-10T21:36:50.031Z,0.60
2022-08-10T21:39:24.315Z,0.98
2022-08-10T21:42:49.449Z,0.75
2022-08-10T21:45:57.919Z,0.68
2022-08-10T21:48:57.601Z,0.63
2022-08-10T21:52:04.051Z,0.98
2022-08-10T21:55:09.262Z,0.98
2022-08-10T21:57:58.200Z,1.15
2022-08-10T22:00:47.030Z,1.00
2022-08-10T22:03:39.357Z,1.10
2022-08-10T22:06:29.990Z,1.20
2022-08-10T22:09:23.322Z,1.60
2022-08-10T22:12:30.886Z,1.73
2022-08-10T22:16:03.343Z,1.48
2022-08-10T22:18:36.631Z,1.73
2022-08-10T22:21:45.492Z,2.30
2022-08-10T22:24:41.322Z,1.90
2022-08-10T22:27:47.179Z,1.90
2022-08-10T22:30:39.252Z,1.58
2022-08-10T22:33:46.183Z,2.50
2022-08-10T22:36:38.270Z,2.58
2022-08-10T22:40:11.926Z,2.35
2022-08-10T22:43:11.119Z,2.08
2022-08-10T22:46:05.700Z,2.03
2022-08-10T22:49:01.311Z,2.40
2022-08-10T22:51:50.526Z,2.70
2022-08-10T22:54:43.709Z,3.50
2022-08-10T22:57:32.536Z,4.13
2022-08-10T23:00:15.307Z,2.92
2022-08-10T23:02:58.474Z,2.65
2022-08-10T23:05:33.686Z,2.33
2022-08-10T23:08:05.168Z,2.67
2022-08-10T23:10:38.029Z,2.53
2022-08-10T23:13:09.222Z,2.00
2022-08-10T23:15:59.047Z,2.05
2022-08-10T23:18:51.390Z,1.33
2022-08-10T23:21:22.052Z,2.13
2022-08-10T23:23:52.872Z,2.13
2022-08-10T23:26:27.370Z,2.10
2022-08-10T23:29:05.288Z,2.00
2022-08-10T23:31:51.897Z,3.08
2022-08-10T23:34:34.175Z,2.42
2022-08-10T23:37:05.447Z,1.98
2022-08-10T23:39:37.132Z,2.05
2022-08-10T23:42:17.308Z,1.73
2022-08-10T23:44:51.752Z,2.10
2022-08-10T23:47:23.682Z,1.17
2022-08-10T23:49:54.884Z,1.55
2022-08-10T23:52:26.260Z,2.25
2022-08-10T23:54:58.165Z,2.10
2022-08-10T23:57:29.140Z,2.13
